Time;durP1;ratioP1;P1;durP2;ratioP2;P2;SDS_P1;SDS_P2;PMS_P1;PMS_P2;Temp;Humidity;BMP_temperature;BMP_pressure;BME280_temperature;BME280_humidity;BME280_pressure;Samples;Min_cycle;Max_cycle;Signal;HPM_P1;HPM_P2
2022/04/23 00:01:32;;;;;;;2.97;2.78;;;18.80;52.30;;;;;;5153317;27;20218;-73
2022/04/23 00:03:57;;;;;;;3.50;3.20;;;18.80;52.30;;;;;;5153147;27;20234;-73
2022/04/23 00:06:23;;;;;;;3.20;2.70;;;18.80;52.30;;;;;;5153647;27;20503;-72
2022/04/23 00:08:48;;;;;;;2.90;2.70;;;18.80;52.30;;;;;;5152700;27;20179;-71
2022/04/23 00:11:14;;;;;;;2.90;2.70;;;18.80;52.30;;;;;;5153529;27;20163;-72
2022/04/23 00:13:39;;;;;;;2.80;2.60;;;18.80;52.30;;;;;;5153529;27;20172;-73
2022/04/23 00:16:07;;;;;;;2.75;2.55;;;18.80;52.30;;;;;;5152991;27;20164;-73
2022/04/23 00:18:33;;;;;;;2.90;2.70;;;18.80;52.30;;;;;;5153708;27;20164;-73
2022/04/23 00:20:59;;;;;;;3.40;3.10;;;18.80;52.40;;;;;;5153231;27;20227;-73
2022/04/23 00:23:25;;;;;;;3.30;3.00;;;18.80;53.00;;;;;;5152734;27;20199;-73
2022/04/23 00:25:52;;;;;;;2.83;2.63;;;18.80;52.40;;;;;;5153034;27;20190;-73
2022/04/23 00:28:18;;;;;;;3.20;2.90;;;18.80;53.00;;;;;;5153850;27;20178;-73
2022/04/23 00:30:44;;;;;;;5.20;3.15;;;18.80;52.40;;;;;;5152588;27;20176;-73
2022/04/23 00:33:10;;;;;;;3.20;2.85;;;18.80;52.40;;;;;;5153437;27;20171;-76
2022/04/23 00:35:36;;;;;;;3.38;3.10;;;18.70;52.40;;;;;;5153120;27;20262;-73
2022/04/23 00:38:02;;;;;;;3.00;2.70;;;18.70;52.40;;;;;;5152624;27;20199;-73
2022/04/23 00:40:28;;;;;;;2.90;2.70;;;18.70;52.30;;;;;;5153192;27;20569;-72
2022/04/23 00:42:55;;;;;;;2.90;2.70;;;18.70;52.40;;;;;;5153207;27;20167;-73
2022/04/23 00:45:24;;;;;;;4.32;3.00;;;18.70;52.40;;;;;;5152367;27;20171;-73
2022/04/23 00:47:50;;;;;;;3.35;3.05;;;18.70;52.30;;;;;;5153028;27;20211;-73
2022/04/23 00:50:20;;;;;;;3.03;2.72;;;18.70;52.40;;;;;;5156713;27;20218;-72
2022/04/23 00:52:53;;;;;;;3.05;2.85;;;18.70;52.40;;;;;;5156614;27;20175;-72
2022/04/23 00:55:19;;;;;;;3.15;2.90;;;18.70;52.40;;;;;;5140100;27;20492;-74
2022/04/23 00:57:44;;;;;;;3.28;3.00;;;18.70;52.40;;;;;;5156432;27;20216;-75
2022/04/23 01:00:13;;;;;;;4.30;3.13;;;18.70;52.40;;;;;;5157345;27;20202;-73
2022/04/23 01:02:39;;;;;;;3.50;3.20;;;18.70;52.40;;;;;;5156896;27;20271;-74
2022/04/23 01:05:08;;;;;;;3.30;3.10;;;18.70;52.50;;;;;;5156425;27;20565;-74
2022/04/23 01:07:38;;;;;;;3.50;3.20;;;18.70;52.50;;;;;;5157006;27;20183;-72
2022/04/23 01:10:05;;;;;;;3.50;3.20;;;18.70;52.50;;;;;;5139210;27;20174;-73
2022/04/23 01:12:31;;;;;;;3.25;2.90;;;18.70;52.50;;;;;;5156380;27;20179;-72
2022/04/23 01:15:00;;;;;;;3.97;3.58;;;18.70;52.50;;;;;;5138399;27;20171;-73
2022/04/23 01:17:26;;;;;;;3.42;3.22;;;18.60;52.40;;;;;;5157139;27;20172;-74
2022/04/23 01:19:51;;;;;;;3.40;3.10;;;18.70;52.50;;;;;;5155690;27;20199;-73
2022/04/23 01:22:17;;;;;;;3.28;2.97;;;18.60;52.50;;;;;;5156997;27;20176;-74
2022/04/23 01:24:43;;;;;;;3.78;3.47;;;18.60;52.50;;;;;;5156594;27;20164;-73
2022/04/23 01:27:10;;;;;;;3.55;3.13;;;18.60;52.50;;;;;;5156157;27;20267;-73
2022/04/23 01:29:36;;;;;;;3.50;3.20;;;18.60;52.40;;;;;;5156600;27;20647;-73
2022/04/23 01:32:05;;;;;;;3.63;3.33;;;18.60;52.40;;;;;;5156929;27;20681;-74
2022/04/23 01:34:31;;;;;;;3.50;3.20;;;18.60;52.50;;;;;;5155817;27;20172;-73
2022/04/23 01:36:56;;;;;;;3.33;3.08;;;18.60;52.50;;;;;;5156526;27;20175;-73
2022/04/23 01:39:22;;;;;;;4.03;3.63;;;18.60;52.50;;;;;;5156546;27;20228;-73
2022/04/23 01:41:47;;;;;;;3.80;3.53;;;18.60;52.60;;;;;;5155488;27;20305;-72
2022/04/23 01:44:13;;;;;;;3.72;3.08;;;18.60;52.50;;;;;;5156468;27;20255;-74
2022/04/23 01:46:38;;;;;;;3.45;3.15;;;18.60;53.20;;;;;;5156155;27;20283;-73
2022/04/23 01:49:04;;;;;;;4.15;3.75;;;18.60;52.60;;;;;;5155546;27;20623;-72
2022/04/23 01:51:29;;;;;;;4.22;3.80;;;18.60;52.50;;;;;;5156536;27;20190;-72
2022/04/23 01:53:55;;;;;;;3.63;3.33;;;18.60;52.60;;;;;;5155270;27;20614;-73
2022/04/23 01:56:20;;;;;;;3.58;3.38;;;18.60;52.60;;;;;;5156141;27;20187;-74
2022/04/23 01:58:46;;;;;;;3.70;3.40;;;18.60;52.50;;;;;;5156009;27;20164;-75
2022/04/23 02:01:12;;;;;;;3.90;3.60;;;18.60;52.60;;;;;;5153819;27;20282;-74
2022/04/23 02:03:37;;;;;;;4.05;3.75;;;18.60;52.60;;;;;;5155357;27;20660;-73
2022/04/23 02:06:03;;;;;;;4.07;3.78;;;18.60;52.60;;;;;;5156346;27;20657;-73
2022/04/23 02:08:28;;;;;;;3.67;3.38;;;18.60;52.60;;;;;;5155390;27;20172;-73
2022/04/23 02:10:54;;;;;;;4.03;3.72;;;18.60;52.60;;;;;;5155757;27;20239;-72
2022/04/23 02:13:19;;;;;;;4.05;3.65;;;18.60;52.60;;;;;;5155949;27;20167;-72
2022/04/23 02:15:45;;;;;;;3.92;3.63;;;18.50;52.60;;;;;;5154999;27;20186;-73
2022/04/23 02:18:11;;;;;;;3.55;3.28;;;18.60;52.60;;;;;;5155798;27;20164;-73
2022/04/23 02:20:36;;;;;;;3.90;3.60;;;18.50;52.60;;;;;;5155447;27;20223;-73
2022/04/23 02:23:02;;;;;;;4.07;3.78;;;18.50;52.60;;;;;;5155086;27;20302;-73
2022/04/23 02:25:28;;;;;;;4.10;3.80;;;18.50;52.60;;;;;;5155546;27;20259;-73
2022/04/23 02:27:53;;;;;;;4.03;3.72;;;18.50;52.60;;;;;;5155410;27;20244;-73
2022/04/23 02:30:20;;;;;;;3.30;3.10;;;18.50;52.60;;;;;;5154925;27;20259;-73
2022/04/23 02:32:46;;;;;;;4.38;4.07;;;18.50;52.60;;;;;;5154545;27;20190;-74
2022/04/23 02:35:12;;;;;;;3.88;3.58;;;18.50;52.60;;;;;;5155509;27;20255;-74
2022/04/23 02:37:37;;;;;;;4.40;4.00;;;18.50;52.60;;;;;;5154635;27;20633;-73
2022/04/23 02:40:06;;;;;;;4.00;3.60;;;18.50;52.60;;;;;;5155477;27;20666;-74
2022/04/23 02:42:33;;;;;;;3.53;3.33;;;18.50;52.60;;;;;;5155268;27;20320;-73
2022/04/23 02:45:01;;;;;;;4.43;4.03;;;18.50;52.60;;;;;;5154160;27;20180;-74
2022/04/23 02:47:52;;;;;;;4.30;4.00;;;18.50;52.70;;;;;;5154972;27;20574;-73
2022/04/23 02:50:32;;;;;;;3.90;3.60;;;18.50;52.60;;;;;;5154459;27;20185;-72
2022/04/23 02:52:58;;;;;;;5.32;4.85;;;18.50;52.60;;;;;;5154542;27;20262;-73
2022/04/23 02:55:25;;;;;;;4.15;3.85;;;18.50;52.60;;;;;;5154902;27;20183;-72
2022/04/23 02:57:51;;;;;;;4.63;4.32;;;18.50;52.60;;;;;;5153737;27;20635;-76
2022/04/23 03:00:16;;;;;;;4.55;4.13;;;18.40;52.60;;;;;;5154779;27;20263;-75
2022/04/23 03:02:42;;;;;;;4.63;4.22;;;18.50;52.60;;;;;;5154567;27;20210;-75
2022/04/23 03:05:10;;;;;;;4.63;4.22;;;18.50;52.70;;;;;;5153682;27;20223;-75
2022/04/23 03:07:36;;;;;;;4.35;4.05;;;18.50;52.70;;;;;;5154545;27;20176;-73
2022/04/23 03:10:03;;;;;;;4.25;3.85;;;18.50;52.70;;;;;;5154610;27;20533;-72
2022/04/23 03:12:28;;;;;;;4.35;4.05;;;18.40;52.60;;;;;;5152888;27;20660;-73
2022/04/23 03:14:54;;;;;;;4.38;3.97;;;18.50;52.70;;;;;;5154390;27;20171;-73
2022/04/23 03:17:19;;;;;;;4.15;3.85;;;18.40;52.70;;;;;;5154338;27;20630;-73
2022/04/23 03:19:46;;;;;;;4.43;4.03;;;18.50;52.70;;;;;;5153381;27;20172;-74
2022/04/23 03:22:13;;;;;;;4.65;4.25;;;18.40;52.70;;;;;;5154482;27;20183;-73
2022/04/23 03:24:39;;;;;;;4.50;4.20;;;18.40;52.70;;;;;;5153833;27;20567;-72
2022/04/23 03:27:06;;;;;;;4.40;4.00;;;18.40;52.70;;;;;;5153461;27;20225;-75
2022/04/23 03:29:32;;;;;;;4.75;4.40;;;18.40;52.70;;;;;;5154390;27;20188;-73
2022/04/23 03:31:58;;;;;;;4.60;4.20;;;18.40;52.80;;;;;;5153960;27;20240;-74
2022/04/23 03:34:23;;;;;;;4.35;3.95;;;18.40;53.40;;;;;;5153505;27;20475;-73
2022/04/23 03:36:49;;;;;;;4.97;4.57;;;18.40;52.80;;;;;;5153819;27;20671;-74
2022/04/23 03:39:15;;;;;;;4.57;4.28;;;18.40;52.80;;;;;;5153820;27;20201;-74
2022/04/23 03:41:40;;;;;;;4.75;4.35;;;18.30;52.80;;;;;;5153056;27;20669;-73
2022/04/23 03:44:06;;;;;;;4.97;4.47;;;18.40;52.80;;;;;;5154050;27;20205;-73
2022/04/23 03:46:31;;;;;;;4.97;4.47;;;18.30;52.80;;;;;;5134554;27;20618;-73
2022/04/23 03:48:58;;;;;;;4.28;3.97;;;18.30;52.80;;;;;;5153548;27;20180;-72
2022/04/23 03:51:23;;;;;;;5.05;4.55;;;18.40;52.80;;;;;;5153754;27;20168;-72
2022/04/23 03:53:49;;;;;;;5.18;4.68;;;18.40;52.80;;;;;;5152682;27;20174;-73
2022/04/23 03:56:15;;;;;;;5.50;5.07;;;18.30;52.80;;;;;;5153779;27;20167;-74
2022/04/23 03:58:41;;;;;;;5.25;4.80;;;18.30;52.80;;;;;;5153622;27;20224;-75
2022/04/23 04:01:07;;;;;;;5.13;4.72;;;18.30;52.80;;;;;;5152917;27;20243;-76
2022/04/23 04:03:32;;;;;;;5.55;5.05;;;18.40;52.90;;;;;;5153670;27;20283;-74
2022/04/23 04:05:58;;;;;;;5.60;5.20;;;18.30;52.80;;;;;;5153258;27;20243;-73
2022/04/23 04:08:23;;;;;;;5.10;4.70;;;18.30;52.90;;;;;;5152880;27;20267;-72
2022/04/23 04:10:49;;;;;;;5.32;4.88;;;18.30;52.90;;;;;;5153096;27;20172;-72
2022/04/23 04:13:14;;;;;;;5.28;4.78;;;18.30;52.90;;;;;;5153601;27;20580;-73
2022/04/23 04:15:43;;;;;;;5.60;5.10;;;18.30;52.90;;;;;;5152266;27;20183;-73
2022/04/23 04:18:08;;;;;;;5.28;4.80;;;18.30;53.00;;;;;;5153376;27;20179;-73
2022/04/23 04:20:34;;;;;;;5.10;4.70;;;18.30;53.00;;;;;;5153278;27;20203;-73
2022/04/23 04:23:00;;;;;;;5.43;5.03;;;18.30;52.90;;;;;;5133342;27;20253;-73
2022/04/23 04:25:25;;;;;;;4.90;4.55;;;18.30;52.90;;;;;;5134431;27;20262;-73
2022/04/23 04:27:51;;;;;;;5.47;4.97;;;18.30;52.90;;;;;;5134364;27;20203;-74
2022/04/23 04:30:16;;;;;;;5.75;5.25;;;18.30;53.00;;;;;;5152547;27;20172;-73
2022/04/23 04:32:42;;;;;;;5.50;5.00;;;18.30;53.00;;;;;;5152887;27;20213;-74
2022/04/23 04:35:09;;;;;;;4.97;4.57;;;18.30;52.90;;;;;;5153009;27;20176;-74
2022/04/23 04:37:34;;;;;;;4.78;4.40;;;18.20;52.90;;;;;;5152327;27;20224;-73
2022/04/23 04:40:00;;;;;;;5.10;4.70;;;18.30;52.90;;;;;;5152881;27;20171;-74
2022/04/23 04:42:25;;;;;;;5.15;4.75;;;18.20;52.90;;;;;;5153364;27;20176;-74
2022/04/23 04:44:51;;;;;;;5.30;4.90;;;18.30;53.00;;;;;;5152350;27;20183;-73
2022/04/23 04:47:16;;;;;;;6.15;5.65;;;18.30;53.00;;;;;;5153278;27;20236;-73
2022/04/23 04:49:42;;;;;;;5.47;5.03;;;18.30;52.90;;;;;;5152020;27;20180;-72
2022/04/23 04:52:08;;;;;;;5.82;5.32;;;18.30;53.00;;;;;;5153287;27;20307;-73
2022/04/23 04:54:33;;;;;;;5.55;5.07;;;18.30;53.00;;;;;;5152986;27;20183;-72
2022/04/23 04:57:02;;;;;;;5.72;5.22;;;18.20;52.90;;;;;;5152118;27;20231;-74
2022/04/23 04:59:28;;;;;;;5.80;5.30;;;18.20;52.90;;;;;;5153142;27;20172;-74
2022/04/23 05:01:53;;;;;;;5.80;5.40;;;18.20;52.90;;;;;;5152843;27;20215;-75
2022/04/23 05:04:19;;;;;;;5.40;5.00;;;18.20;52.90;;;;;;5152056;27;20306;-73
2022/04/23 05:06:44;;;;;;;5.50;5.10;;;18.20;53.00;;;;;;5152703;27;20615;-73
2022/04/23 05:09:10;;;;;;;5.45;5.00;;;18.20;52.90;;;;;;5152860;27;20199;-73
2022/04/23 05:11:35;;;;;;;4.88;4.55;;;18.20;52.90;;;;;;5152033;27;20689;-72
2022/04/23 05:14:01;;;;;;;5.00;4.60;;;18.20;52.90;;;;;;5153099;27;20172;-73
2022/04/23 05:16:26;;;;;;;5.53;5.13;;;18.20;52.90;;;;;;5152895;27;20176;-73
2022/04/23 05:18:52;;;;;;;5.60;5.15;;;18.20;52.90;;;;;;5151743;27;20179;-72
2022/04/23 05:21:17;;;;;;;5.00;4.60;;;18.20;52.90;;;;;;5152607;27;20217;-73
2022/04/23 05:23:43;;;;;;;5.78;5.28;;;18.20;52.90;;;;;;5152162;27;20456;-73
2022/04/23 05:26:09;;;;;;;5.20;4.80;;;18.30;53.00;;;;;;5152161;27;20195;-73
2022/04/23 05:28:35;;;;;;;5.18;4.78;;;18.20;52.90;;;;;;5152541;27;20535;-74
2022/04/23 05:31:01;;;;;;;5.65;5.07;;;18.20;52.90;;;;;;5153066;27;20196;-75
2022/04/23 05:33:26;;;;;;;5.03;4.63;;;18.20;52.90;;;;;;5152172;27;20583;-73
2022/04/23 05:35:52;;;;;;;5.70;5.20;;;18.20;52.90;;;;;;5154743;27;20176;-73
2022/04/23 05:38:20;;;;;;;5.10;4.70;;;18.20;52.90;;;;;;5156273;27;20623;-74
2022/04/23 05:40:47;;;;;;;5.75;5.18;;;18.20;52.90;;;;;;5155402;27;20230;-74
2022/04/23 05:43:12;;;;;;;5.40;5.00;;;18.20;52.90;;;;;;5156505;27;20221;-77
2022/04/23 05:45:37;;;;;;;5.43;5.03;;;18.20;52.90;;;;;;5155871;27;20180;-73
2022/04/23 05:48:03;;;;;;;6.30;5.72;;;18.20;52.90;;;;;;5155357;27;20248;-73
2022/04/23 05:50:29;;;;;;;5.10;4.70;;;18.20;52.90;;;;;;5156196;27;20528;-72
2022/04/23 05:52:55;;;;;;;5.55;5.15;;;18.20;52.90;;;;;;5155032;27;20252;-73
2022/04/23 05:55:20;;;;;;;5.40;4.97;;;18.20;52.90;;;;;;5156357;27;20562;-73
2022/04/23 05:57:47;;;;;;;5.25;4.85;;;18.20;52.90;;;;;;5155747;27;20182;-75
2022/04/23 06:00:12;;;;;;;5.18;4.78;;;18.20;52.90;;;;;;5155076;27;20208;-76
2022/04/23 06:02:38;;;;;;;5.60;5.20;;;18.20;52.90;;;;;;5155560;27;20616;-74
2022/04/23 06:05:04;;;;;;;5.82;5.20;;;18.20;52.90;;;;;;5155791;27;20222;-73
2022/04/23 06:07:30;;;;;;;5.43;5.03;;;18.20;52.90;;;;;;5154873;27;20259;-73
2022/04/23 06:09:56;;;;;;;4.85;4.55;;;18.20;52.80;;;;;;5155231;27;20703;-73
2022/04/23 06:12:22;;;;;;;5.80;5.35;;;18.20;52.80;;;;;;5155751;27;20172;-73
2022/04/23 06:14:49;;;;;;;5.20;4.80;;;18.20;52.80;;;;;;5154847;27;20183;-72
2022/04/23 06:17:14;;;;;;;5.60;5.20;;;18.20;52.80;;;;;;5155824;27;20172;-73
2022/04/23 06:19:40;;;;;;;5.60;5.18;;;18.20;52.80;;;;;;5155327;27;20323;-73
2022/04/23 06:22:06;;;;;;;5.55;5.15;;;18.20;52.90;;;;;;5154892;27;20630;-73
2022/04/23 06:24:32;;;;;;;5.78;5.32;;;18.20;53.50;;;;;;5155777;27;20167;-73
2022/04/23 06:26:57;;;;;;;5.13;4.78;;;18.20;52.80;;;;;;5155339;27;20537;-73
2022/04/23 06:29:23;;;;;;;5.35;4.95;;;18.20;52.80;;;;;;5154705;27;20617;-73
2022/04/23 06:31:48;;;;;;;5.50;5.10;;;18.30;52.90;;;;;;5155197;27;20270;-73
2022/04/23 06:34:14;;;;;;;5.63;5.22;;;18.30;52.80;;;;;;5155370;27;20175;-73
2022/04/23 06:36:40;;;;;;;5.22;4.82;;;18.30;52.80;;;;;;5154093;27;20188;-73
2022/04/23 06:39:08;;;;;;;5.18;4.78;;;18.30;52.80;;;;;;5155369;27;20176;-73
2022/04/23 06:41:34;;;;;;;5.20;4.80;;;18.30;52.80;;;;;;5155364;27;20298;-72
2022/04/23 06:44:05;;;;;;;4.82;4.43;;;18.30;52.80;;;;;;5154607;27;20587;-74
2022/04/23 06:46:30;;;;;;;5.32;4.88;;;18.30;52.80;;;;;;5153596;27;20188;-73
2022/04/23 06:48:56;;;;;;;5.20;4.80;;;18.30;52.70;;;;;;5154626;27;20512;-72
2022/04/23 06:51:22;;;;;;;5.20;4.80;;;18.40;52.70;;;;;;5154116;27;20180;-72
2022/04/23 06:53:47;;;;;;;5.15;4.75;;;18.30;52.70;;;;;;5154771;27;20195;-72
2022/04/23 06:56:13;;;;;;;5.72;5.22;;;18.40;52.60;;;;;;5154247;27;20168;-74
2022/04/23 06:58:38;;;;;;;4.63;4.32;;;18.40;52.50;;;;;;5154338;27;20168;-74
2022/04/23 07:01:04;;;;;;;5.00;4.60;;;18.50;52.60;;;;;;5154520;27;20526;-75
2022/04/23 07:03:29;;;;;;;5.53;5.13;;;18.40;52.40;;;;;;5153396;27;20262;-73
2022/04/23 07:05:55;;;;;;;5.30;4.80;;;18.50;52.40;;;;;;5154283;27;20575;-72
2022/04/23 07:08:21;;;;;;;5.68;5.18;;;18.50;52.40;;;;;;5154449;27;20263;-72
2022/04/23 07:10:46;;;;;;;4.85;4.50;;;18.50;52.40;;;;;;5153460;27;20176;-72
2022/04/23 07:13:12;;;;;;;5.50;4.93;;;18.50;52.40;;;;;;5154184;27;20175;-72
2022/04/23 07:15:37;;;;;;;5.03;4.63;;;18.50;52.40;;;;;;5154215;27;20175;-74
2022/04/23 07:18:03;;;;;;;5.10;4.70;;;18.50;52.40;;;;;;5153681;27;20168;-71
2022/04/23 07:20:29;;;;;;;5.53;5.07;;;18.50;52.40;;;;;;5154009;27;20223;-70
2022/04/23 07:25:38;;;;;;;6.38;5.28;;;18.60;52.40;;;;;;5153366;27;20186;-70
2022/04/23 07:28:04;;;;;;;5.40;4.78;;;18.60;52.70;;;;;;5154085;27;20519;-70
2022/04/23 07:30:30;;;;;;;5.70;5.22;;;18.70;52.60;;;;;;5154102;27;20622;-70
2022/04/23 07:32:56;;;;;;;5.93;4.50;;;18.70;52.50;;;;;;5152808;27;20304;-69
2022/04/23 07:38:19;;;;;;;5.55;5.05;;;18.70;52.40;;;;;;5153932;27;20644;-73
2022/04/23 07:40:46;;;;;;;5.88;4.95;;;18.80;52.40;;;;;;5152974;27;20207;-73
2022/04/23 07:43:12;;;;;;;7.65;5.25;;;18.70;52.50;;;;;;5153954;27;20172;-73
2022/04/23 07:45:42;;;;;;;5.88;4.57;;;18.70;52.50;;;;;;5152652;27;20172;-73
2022/04/23 07:48:08;;;;;;;6.28;4.63;;;18.70;52.40;;;;;;5152789;27;20184;-68
2022/04/23 07:50:34;;;;;;;5.07;4.68;;;18.80;52.60;;;;;;5153783;27;20196;-67
2022/04/23 07:52:59;;;;;;;5.45;4.90;;;18.90;52.60;;;;;;5153034;27;20175;-69
2022/04/23 07:55:25;;;;;;;5.43;4.72;;;18.80;52.50;;;;;;5153666;27;20186;-68
2022/04/23 07:57:50;;;;;;;5.28;4.78;;;18.90;52.60;;;;;;5153254;27;20164;-75
2022/04/23 08:00:16;;;;;;;5.72;5.22;;;19.00;52.60;;;;;;5152889;27;20573;-72
2022/04/23 08:02:42;;;;;;;6.05;5.53;;;18.90;52.60;;;;;;5153321;27;20605;-73
2022/04/23 08:05:12;;;;;;;7.20;5.30;;;19.00;52.60;;;;;;5153189;27;20216;-74
2022/04/23 08:07:39;;;;;;;6.53;5.10;;;19.00;52.70;;;;;;5152532;27;20187;-74
2022/04/23 08:10:05;;;;;;;5.22;4.68;;;19.00;52.70;;;;;;5153391;27;20182;-68
2022/04/23 08:12:34;;;;;;;5.85;5.15;;;19.00;52.80;;;;;;5152932;27;20176;-70
2022/04/23 08:15:00;;;;;;;5.68;4.90;;;19.00;53.00;;;;;;5152715;27;20529;-72
2022/04/23 08:17:25;;;;;;;6.68;5.05;;;19.10;53.10;;;;;;5152601;27;20686;-70
2022/04/23 08:19:51;;;;;;;5.60;4.68;;;19.00;53.00;;;;;;5152600;27;20172;-69
2022/04/23 08:22:16;;;;;;;6.88;5.03;;;19.10;53.00;;;;;;5152545;27;20666;-70
2022/04/23 08:24:42;;;;;;;6.32;5.18;;;19.20;53.00;;;;;;5152916;27;20211;-70
2022/04/23 08:27:07;;;;;;;7.13;4.97;;;19.10;52.90;;;;;;5153196;27;20211;-70
2022/04/23 08:32:17;;;;;;;4.65;4.35;;;19.20;52.80;;;;;;5153063;27;20633;-71
2022/04/23 08:34:42;;;;;;;9.02;5.00;;;19.20;52.80;;;;;;5152036;27;20163;-68
2022/04/23 08:37:08;;;;;;;5.43;4.78;;;19.20;52.90;;;;;;5152895;27;20183;-71
2022/04/23 08:39:33;;;;;;;5.43;4.95;;;19.20;52.90;;;;;;5152864;27;20168;-70
2022/04/23 08:41:59;;;;;;;5.47;4.80;;;19.30;52.80;;;;;;5152166;27;20993;-70
2022/04/23 08:44:25;;;;;;;5.55;5.00;;;19.30;52.80;;;;;;5134395;27;20529;-70
2022/04/23 08:46:51;;;;;;;5.55;5.05;;;19.40;52.80;;;;;;5152621;27;20549;-69
2022/04/23 08:49:17;;;;;;;6.00;4.88;;;19.40;52.80;;;;;;5152526;27;20549;-68
2022/04/23 08:51:45;;;;;;;5.05;4.57;;;19.40;52.70;;;;;;5152943;27;20172;-69
2022/04/23 08:54:12;;;;;;;5.45;4.95;;;19.40;52.70;;;;;;5134764;27;20621;-69
2022/04/23 08:56:41;;;;;;;5.28;4.88;;;19.40;52.70;;;;;;5151911;27;20187;-71
2022/04/23 08:59:07;;;;;;;12.73;5.47;;;19.40;52.70;;;;;;5153146;27;20171;-72
2022/04/23 09:01:34;;;;;;;7.15;4.18;;;19.50;52.80;;;;;;5153065;27;20211;-72
2022/04/23 09:04:01;;;;;;;6.60;5.00;;;19.40;52.90;;;;;;5151766;27;20224;-73
2022/04/23 09:06:38;;;;;;;5.57;5.00;;;19.40;52.90;;;;;;5152797;27;20187;-71
2022/04/23 09:09:15;;;;;;;5.50;5.00;;;19.40;53.00;;;;;;5152904;27;20186;-74
2022/04/23 09:11:43;;;;;;;5.35;4.85;;;19.40;53.00;;;;;;5155839;27;20235;-74
2022/04/23 09:14:09;;;;;;;8.05;4.95;;;19.40;53.10;;;;;;5156849;27;20179;-69
2022/04/23 09:25:04;;;;;;;5.20;4.70;;;19.50;53.20;;;;;;5155941;27;20317;-68
2022/04/23 09:27:31;;;;;;;5.32;4.82;;;19.50;53.20;;;;;;5156579;27;20216;-74
2022/04/23 09:29:58;;;;;;;7.72;5.05;;;19.40;53.20;;;;;;5156323;27;20323;-74
2022/04/23 09:32:23;;;;;;;5.47;4.97;;;19.50;53.30;;;;;;5155690;27;20213;-73
2022/04/23 09:35:03;;;;;;;9.10;5.35;;;19.50;53.40;;;;;;5156372;27;20210;-73
2022/04/23 09:38:11;;;;;;;7.93;4.90;;;19.60;53.30;;;;;;5137901;27;20176;-70
2022/04/23 09:40:21;;;;;;;7.10;4.13;;;19.60;53.80;;;;;;5155385;27;20163;-71
2022/04/23 09:43:02;;;;;;;6.03;4.72;;;19.60;53.20;;;;;;5156329;27;20176;-71
2022/04/23 09:45:29;;;;;;;5.22;4.70;;;19.50;53.20;;;;;;5155671;27;20228;-72
2022/04/23 09:48:04;;;;;;;7.15;5.20;;;19.60;53.30;;;;;;5155874;27;20176;-71
2022/04/23 09:50:39;;;;;;;5.43;4.60;;;19.60;53.10;;;;;;5156207;27;20172;-70
2022/04/23 09:53:11;;;;;;;6.38;5.50;;;19.70;53.00;;;;;;5155636;27;20175;-73
2022/04/23 09:55:37;;;;;;;7.50;4.90;;;19.70;53.00;;;;;;5156019;27;20179;-72
2022/04/23 09:58:07;;;;;;;6.50;4.78;;;19.70;53.00;;;;;;5156118;27;20172;-75
2022/04/23 10:00:37;;;;;;;5.38;4.82;;;19.70;53.10;;;;;;5155196;27;20632;-73
2022/04/23 10:03:06;;;;;;;8.20;4.85;;;19.70;53.10;;;;;;5138208;27;20597;-74
2022/04/23 10:05:32;;;;;;;6.90;4.82;;;19.70;53.10;;;;;;5155733;27;20232;-76
2022/04/23 10:07:58;;;;;;;6.57;4.88;;;19.60;53.10;;;;;;5119605;27;20199;-76
2022/04/23 10:10:26;;;;;;;5.90;5.00;;;19.60;53.50;;;;;;5120193;27;20172;-75
2022/04/23 10:12:51;;;;;;;9.20;6.00;;;19.60;53.30;;;;;;5155530;27;20172;-76
2022/04/23 10:15:17;;;;;;;5.90;5.03;;;19.70;53.10;;;;;;5119334;27;20167;-74
2022/04/23 10:17:42;;;;;;;8.75;5.15;;;19.70;53.10;;;;;;5119708;27;20178;-73
2022/04/23 10:20:09;;;;;;;6.03;4.95;;;19.70;53.10;;;;;;5155662;27;20200;-74
2022/04/23 10:22:47;;;;;;;5.50;5.00;;;19.60;53.30;;;;;;5154229;27;20271;-72
2022/04/23 10:25:25;;;;;;;10.10;5.80;;;19.70;53.20;;;;;;5121567;27;20180;-76
2022/04/23 10:27:51;;;;;;;6.63;4.90;;;19.70;53.10;;;;;;5136051;27;20266;-75
2022/04/23 10:30:17;;;;;;;7.45;5.63;;;19.70;52.90;;;;;;5137212;27;20171;-74
2022/04/23 10:32:43;;;;;;;6.75;5.78;;;19.80;52.90;;;;;;5136511;27;20195;-77
2022/04/23 10:35:20;;;;;;;5.95;5.35;;;19.80;52.80;;;;;;5155025;27;20511;-76
2022/04/23 10:37:49;;;;;;;8.65;5.75;;;19.80;52.80;;;;;;5155276;27;20207;-76
2022/04/23 10:40:19;;;;;;;6.30;5.28;;;19.80;52.90;;;;;;5155499;27;20183;-76
2022/04/23 10:43:04;;;;;;;5.75;5.25;;;19.70;53.00;;;;;;5154633;27;20186;-75
2022/04/23 10:45:33;;;;;;;5.85;5.30;;;19.80;53.00;;;;;;5155342;27;20179;-76
2022/04/23 10:48:24;;;;;;;6.78;5.30;;;19.90;52.90;;;;;;5155203;27;20259;-74
2022/04/23 10:51:02;;;;;;;5.38;4.88;;;19.90;52.90;;;;;;5154721;27;20168;-72
2022/04/23 10:53:49;;;;;;;6.13;5.25;;;19.90;53.00;;;;;;5155166;27;20175;-73
2022/04/23 10:56:16;;;;;;;5.47;4.97;;;19.80;53.20;;;;;;5154432;27;20171;-74
2022/04/23 10:58:42;;;;;;;7.78;6.07;;;19.80;53.20;;;;;;5154531;27;20258;-76
2022/04/23 11:01:23;;;;;;;5.50;5.00;;;19.80;53.20;;;;;;5154487;27;20295;-75
2022/04/23 11:04:08;;;;;;;6.38;5.45;;;19.80;53.30;;;;;;5153861;27;20219;-76
2022/04/23 11:12:32;;;;;;;5.60;5.10;;;20.00;53.10;;;;;;5154705;27;20178;-73
2022/04/23 11:14:58;;;;;;;6.65;6.05;;;20.00;53.00;;;;;;5154365;27;20168;-73
2022/04/23 11:17:31;;;;;;;6.53;4.63;;;20.10;53.00;;;;;;5153720;27;20263;-74
2022/04/23 11:19:57;;;;;;;6.03;5.45;;;20.10;53.00;;;;;;5136674;27;20180;-73
2022/04/23 11:22:23;;;;;;;8.27;5.78;;;20.10;53.00;;;;;;5154521;27;20661;-73
2022/04/23 11:24:49;;;;;;;5.65;5.18;;;20.10;53.10;;;;;;5153470;27;20172;-73
2022/04/23 11:27:28;;;;;;;8.35;5.70;;;20.10;53.00;;;;;;5154448;27;20175;-74
2022/04/23 11:29:54;;;;;;;6.22;5.18;;;20.10;53.00;;;;;;5154013;27;20283;-75
2022/04/23 11:32:26;;;;;;;7.13;5.75;;;20.10;53.00;;;;;;5153177;27;20254;-76
2022/04/23 11:34:56;;;;;;;5.85;5.35;;;20.10;53.10;;;;;;5154036;27;20184;-75
2022/04/23 11:37:35;;;;;;;5.80;5.22;;;20.10;53.00;;;;;;5154300;27;20172;-76
2022/04/23 11:40:23;;;;;;;5.93;5.32;;;20.20;53.00;;;;;;5154152;27;20171;-76
2022/04/23 11:42:49;;;;;;;7.03;5.57;;;20.20;53.00;;;;;;5153679;27;20188;-70
2022/04/23 11:45:16;;;;;;;7.07;5.20;;;20.20;53.00;;;;;;5153557;27;20187;-73
2022/04/23 11:47:42;;;;;;;6.28;5.10;;;20.30;52.90;;;;;;5154149;27;20182;-70
2022/04/23 11:50:17;;;;;;;6.75;6.07;;;20.40;52.90;;;;;;5154018;27;20246;-70
2022/04/23 11:52:55;;;;;;;6.10;5.50;;;20.40;52.90;;;;;;5153244;27;20179;-68
2022/04/23 11:55:22;;;;;;;5.97;5.38;;;20.40;53.10;;;;;;5153818;27;20613;-73
2022/04/23 11:57:58;;;;;;;5.97;5.35;;;20.50;53.00;;;;;;5153487;27;20525;-71
2022/04/23 12:00:24;;;;;;;5.68;5.18;;;20.50;53.00;;;;;;5154151;27;20266;-73
2022/04/23 12:02:50;;;;;;;6.28;5.25;;;20.50;53.00;;;;;;5153801;27;20179;-74
2022/04/23 12:05:23;;;;;;;8.15;5.68;;;20.50;52.90;;;;;;5153348;27;20722;-74
2022/04/23 12:07:48;;;;;;;6.55;5.95;;;20.50;53.00;;;;;;5152661;27;20187;-73
2022/04/23 12:10:14;;;;;;;5.50;5.00;;;20.50;53.00;;;;;;5135100;27;20167;-75
2022/04/23 12:12:42;;;;;;;6.40;5.63;;;20.40;53.00;;;;;;5153234;27;20248;-77
2022/04/23 12:15:11;;;;;;;6.00;5.50;;;20.50;53.10;;;;;;5153581;27;20259;-74
2022/04/23 12:17:45;;;;;;;7.13;5.63;;;20.50;53.00;;;;;;5153291;27;20586;-77
2022/04/23 12:20:12;;;;;;;6.25;5.75;;;20.50;53.00;;;;;;5152595;27;20591;-75
2022/04/23 12:22:37;;;;;;;6.68;5.55;;;20.40;53.00;;;;;;5153023;27;20176;-76
2022/04/23 12:25:29;;;;;;;9.18;5.82;;;20.40;53.10;;;;;;5153750;27;20174;-74
2022/04/23 12:41:58;;;;;;;7.10;6.22;;;20.40;53.30;;;;;;5152130;27;20210;-73
2022/04/23 12:44:24;;;;;;;6.40;5.85;;;20.50;53.20;;;;;;5153116;27;20253;-74
2022/04/23 12:46:57;;;;;;;7.07;6.35;;;20.60;52.70;;;;;;5157369;27;20168;-74
2022/04/23 12:49:47;;;;;;;6.63;5.95;;;20.50;52.60;;;;;;5156690;27;20172;-74
2022/04/23 12:52:20;;;;;;;6.50;5.90;;;20.50;52.60;;;;;;5157576;27;20454;-75
2022/04/23 12:55:17;;;;;;;7.20;6.30;;;20.60;52.70;;;;;;5157502;27;20618;-76
2022/04/23 12:57:46;;;;;;;7.13;6.43;;;20.60;52.60;;;;;;5157030;27;20528;-73
2022/04/23 13:00:19;;;;;;;10.10;6.68;;;20.60;52.40;;;;;;5157380;27;20171;-73
2022/04/23 13:02:58;;;;;;;7.50;6.32;;;20.70;52.30;;;;;;5138481;27;20191;-72
2022/04/23 13:05:25;;;;;;;8.27;6.43;;;20.70;52.10;;;;;;5157327;27;20294;-74
2022/04/23 13:10:35;;;;;;;7.55;6.75;;;20.80;51.90;;;;;;5156406;27;20641;-75
2022/04/23 13:13:00;;;;;;;6.78;6.18;;;20.90;51.70;;;;;;5157183;27;20175;-74
2022/04/23 13:15:26;;;;;;;7.38;6.68;;;20.90;51.60;;;;;;5157133;27;20621;-76
2022/04/23 13:17:52;;;;;;;7.40;6.70;;;20.90;51.80;;;;;;5155840;27;20243;-75
2022/04/23 13:20:18;;;;;;;7.38;6.43;;;20.80;52.20;;;;;;5156805;27;20220;-72
2022/04/23 13:22:44;;;;;;;8.82;6.47;;;20.90;51.80;;;;;;5156316;27;20181;-73
2022/04/23 13:25:13;;;;;;;8.07;7.28;;;20.90;51.90;;;;;;5156080;27;20259;-72
2022/04/23 13:27:42;;;;;;;7.75;7.05;;;20.90;51.70;;;;;;5156540;27;20175;-69